ADDS METAR Data INFO
IDs: Format: Raw Decoded Include TAF

Data at: 0037 UTC 23 Feb 2018

KSGR 230025Z 33004KT 6SM BR OVC009 18/17 A3015 RMK AO2 T01830167
KSGR 222353Z 34004KT 5SM BR OVC012 19/17 A3015 RMK AO2 RAB2255E06 SLP210 P0000 60001 T01890172 10194 20161 51004
KSGR 222348Z 01004KT 5SM BR BKN012 OVC021 19/17 A3014 RMK AO2 RAB2255E06 P0000
KSGR 222340Z 34003KT 5SM BR BKN009 BKN014 OVC024 19/17 A3014 RMK AO2 RAB2255E06 P0000 T01890172
KSGR 222330Z 33003KT 5SM BR BKN012 BKN019 OVC023 19/17 A3014 RMK AO2 RAB2255E06 P0000 T01890172
KSGR 222253Z 33004KT 4SM BR FEW005 BKN018 OVC026 19/17 A3014 RMK AO2 RAB2155E39 SLP207 P0001 T01890172
KSGR 222153Z 31005KT 4SM BR FEW006 BKN016 OVC030 19/17 A3013 RMK AO2 RAB15E31 SLP206 P0000 T01940172
KSGR 222143Z 31005KT 5SM BR SCT006 BKN021 OVC047 19/17 A3014 RMK AO2 RAB15E31 P0000 T01940172
KSGR 222053Z 34004KT 4SM BR OVC005 19/17 A3014 RMK AO2 SLP209 T01890167 56021
KSGR 222029Z 34005KT 4SM BR OVC005 19/17 A3015 RMK AO2 T01890167
KSGR 222000Z 33003KT 3SM BR OVC004 19/17 A3016 RMK AO2 T01890172
KSGR 221953Z 32003KT 1SM BR OVC004 19/17 A3016 RMK AO2 SLP215 T01890172
KSGR 221853Z 36004KT 1SM BR OVC003 17/16 A3019 RMK AO2 SLP224 T01720161
KSGR 221814Z 04005KT 1SM BR OVC003 17/16 A3020 RMK AO2 T01670156
KSGR 221753Z 33004KT 1SM BR OVC002 16/15 A3021 RMK AO2 RAE29 SLP231 P0001 60002 T01610150 10161 20128 58002
KSGR 221653Z 33005KT 1/2SM -RA FG OVC002 16/14 A3022 RMK AO2 RAB52 SLP235 P0001 T01560144
KSGR 221553Z 36004KT 1/2SM FG OVC002 15/14 A3021 RMK AO2 SLP233 T01500144
KSGR 221453Z 02005KT 1/2SM FG OVC002 14/13 A3021 RMK AO2 SLP233 60000 T01440133 51012
KSGR 221353Z 01007KT 3/4SM BR OVC002 14/13 A3020 RMK AO2 RAE00 SLP230 P0000 T01390128
KSGR 221323Z 03007KT 3/4SM BR OVC002 13/12 A3019 RMK AO2 RAE00 P0000 T01330122
KSGR 221314Z 02006KT 1 1/4SM BR OVC003 13/12 A3019 RMK AO2 RAE00 P0000 T01330122
KSGR 221253Z 02006KT 2 1/2SM -RA BR OVC003 13/12 A3019 RMK AO2 RAB51 SLP225 P0000 T01330122
KSGR 221225Z 01006KT 2 1/2SM BR OVC003 13/12 A3019 RMK AO2 T01330122
KSGR 221209Z 02007KT 3SM BR OVC003 13/12 A3018 RMK AO2 T01280117
KSGR 221153Z 03010KT 2 1/2SM BR OVC003 13/12 A3018 RMK AO2 RAB16E27 SLP221 P0000 60002 70078 T01280117 10128 20106 51003
KSGR 221137Z AUTO 02008KT 2 1/2SM BR OVC003 13/12 A3017 RMK AO2 RAB16E27 P0000 T01280117
KSGR 221053Z AUTO 01007KT 5SM BR OVC004 12/11 A3017 RMK AO2 RAE03 SLP219 P0000 T01220111
KSGR 220953Z AUTO 01008KT 5SM -RA BR OVC006 12/11 A3017 RMK AO2 SLP217 P0001 T01220106
KSGR 220853Z AUTO 01008KT 5SM -RA BR OVC005 12/10 A3017 RMK AO2 RAB06E34B52 SLP218 P0001 60001 T01170100 58007
KSGR 220833Z AUTO 01006KT 4SM -RA BR OVC004 11/10 A3018 RMK AO2 LTG DSNT N RAB06 P0000 T01110100
KSGR 220753Z AUTO 36005KT 7SM OVC005 11/09 A3018 RMK AO2 RAE06 SLP223 P0000 T01110094
KSGR 220653Z AUTO 36009KT 9SM -RA OVC006 11/09 A3019 RMK AO2 LTG DSNT N RAB53 SLP225 P0000 T01060089
KSGR 220553Z AUTO 34007KT 5SM BR OVC005 11/09 A3019 RMK AO2 LTG DSNT N RAE09B39E50 SLP226 P0000 60003 T01060089 10133 20106 402440106 50012
KSGR 220453Z AUTO 33009KT 6SM -RA BR OVC005 11/09 A3020 RMK AO2 SLP228 P0002 T01060094
KSGR 220353Z AUTO 34008KT 5SM -RA BR OVC005 12/10 A3018 RMK AO2 LTG DSNT NE AND E RAB18E31B47 SLP220 P0001 T01170100
KSGR 220007Z 34009KT 10SM BKN007 OVC018 13/12 A3011 RMK AO2 RAE05 P0000 T01330117
KSGR 212353Z 34010KT 10SM -RA SCT007 OVC018 13/12 A3010 RMK AO2 LTG DSNT S SLP194 P0000 60051 T01330117 10178 20133 51020
KSGR 212253Z 34011G18KT 5SM -RA BR OVC005 14/12 A3009 RMK AO2 RAB22 SLP190 P0000 T01390122
KSGR 212153Z 34009KT 10SM OVC006 16/13 A3006 RMK AO2 RAE02 SLP179 P0000 T01560133
KSGR 212053Z AUTO 32010KT 10SM -RA OVC007 17/14 A3004 RMK AO2 LTG DSNT NE CIG 005V009 SLP174 P0004 60051 T01670144 55004
KSGR 211953Z 34007KT 6SM -RA BR OVC006 17/15 A3004 RMK AO2 SLP174 P0004 T01670150
KSGR 211909Z 33004KT 10SM -RA BKN004 BKN010 OVC025 17/16 A3005 RMK AO2 LTG DSNT NE P0000 T01720156
KSGR 211856Z 33006KT 3SM -RA BR FEW004 BKN021 OVC031 17/15 A3005 RMK AO2 LTG DSNT NE P0000 T01670150
KSGR 211853Z 34005KT 1 1/4SM -RA BR FEW006 BKN019 OVC031 17/15 A3005 RMK AO2 LTG DSNT NE SLP177 P0043 T01670150
KSGR 211850Z 34007KT 1SM +RA BR FEW004 BKN015 OVC023 16/15 A3005 RMK AO2 P0043
KSGR 211843Z 35004KT 2 1/2SM +RA BR SCT006 BKN015 OVC030 16/14 A3006 RMK AO2 P0034 T01610144
KSGR 211829Z VRB05KT 3SM RA BR BKN006 OVC018 16/14 A3007 RMK AO2 P0029 T01610144
KSGR 211821Z 33007KT 2 1/2SM VCTS +RA BR BKN008 BKN020 OVC047 16/14 A3007 RMK AO2 VIS 1 3/4V5 LTG DSNT N P0027 T01560144
KSGR 211814Z 31005KT 2 1/2SM VCTS +RA BR FEW004 BKN010 OVC016 16/14 A3007 RMK AO2 VIS 1 1/4V5 LTG DSNT N P0023 T01560144
KSGR 211801Z 36006KT 1 1/2SM +RA BR FEW004 OVC010 15/14 A3007 RMK AO2 VIS 1/2V5 LTG DSNT N P0013 T01500139
KSGR 211753Z 34007KT 10SM -RA FEW004 OVC010 16/14 A3008 RMK AO2 LTG DSNT N AND NE CIG 008V015 SLP186 P0020 60022 T01560139 10244 20144 58001
KSGR 211741Z 35007KT 7SM -RA SCT004 BKN010 OVC015 16/14 A3008 RMK AO2 LTG DSNT N AND NE P0020 T01560139
KSGR 211731Z 33005KT 8SM -RA BKN004 OVC010 15/14 A3008 RMK AO2 LTG DSNT N P0019 T01500139
KSGR 211724Z 01005KT 2SM RA BR BKN005 BKN010 OVC015 15/14 A3008 RMK AO2 LTG DSNT N P0019 T01500139
KSGR 211718Z 34007KT 1SM +RA BR FEW005 OVC015 15/13 A3008 RMK AO2 LTG DSNT N P0017 T01500133
KSGR 211710Z 33007KT 2 1/2SM RA BR FEW005 OVC015 15/13 A3009 RMK AO2 P0007 T01500133
KSGR 211700Z VRB06KT 5SM VCTS RA BR FEW005 OVC015 15/13 A3009 RMK AO2 P0002 T01500133
KSGR 211653Z 33011KT 8SM VCTS -RA FEW007 OVC011 15/13 A3008 RMK AO2 WSHFT 1556 RAB23 SLP188 P0002 T01500133
KSGR 211649Z 33008KT 8SM VCTS -RA FEW007 OVC011 15/13 A3008 RMK AO2 WSHFT 1556 RAB23 P0002
KSGR 211623Z 33009KT 8SM -RA FEW007 OVC011 16/14 A3008 RMK AO2 WSHFT 1556 RAB23 P0000 T01610139
KSGR 211616Z 32013KT 10SM OVC011 16/14 A3008 RMK AO2 WSHFT 1556 T01610144
KSGR 211603Z 32012G18KT 10SM BKN007 OVC013 17/15 A3008 RMK AO2 CIG 007V011 T01720150
KSGR 211553Z VRB06KT 9SM OVC013 24/22 A3008 RMK AO2 RAB49E53 SLP186 P0000 T02440222
KSGR 211501Z 16007KT 8SM BKN011 OVC017 24/22 A3007 RMK AO2 T02390217
KSGR 211453Z 15007KT 7SM SCT010 OVC015 23/22 A3007 RMK AO2 SLP183 T02330217 51008
KSGR 211441Z 16008KT 7SM SCT011 BKN018 OVC041 23/22 A3006 RMK AO2 T02330217
KSGR 211353Z 15008KT 7SM BKN011 OVC018 23/21 A3006 RMK AO2 SLP179 T02280211
KSGR 211253Z 14005KT 10SM BKN011 OVC018 23/21 A3005 RMK AO2 SLP178 T02280211